Time;durP1;ratioP1;P1;durP2;ratioP2;P2;SDS_P1;SDS_P2;PMS_P1;PMS_P2;Temp;Humidity;BMP_temperature;BMP_pressure;BME280_temperature;BME280_humidity;BME280_pressure;Samples;Min_cycle;Max_cycle;Signal;HPM_P1;HPM_P2
2021/06/29 00:01:11;;;;;;;13.32;11.10;;;;;;;13.10;74.77;99584.81;1691030;82;20888;-64
2021/06/29 00:03:38;;;;;;;18.87;11.50;;;;;;;13.17;74.89;99586.15;1686843;82;21006;-64
2021/06/29 00:06:06;;;;;;;13.70;11.08;;;;;;;13.24;75.07;99585.77;1700489;82;21881;-64
2021/06/29 00:08:33;;;;;;;13.62;11.20;;;;;;;13.30;74.95;99569.70;1705043;82;21043;-64
2021/06/29 00:11:00;;;;;;;16.50;10.55;;;;;;;13.30;74.95;99569.70;1717033;80;20973;-64
2021/06/29 00:13:26;;;;;;;14.20;10.98;;;;;;;13.31;75.13;99564.84;1720272;80;20922;-63
2021/06/29 00:15:53;;;;;;;15.90;10.57;;;;;;;13.33;75.24;99565.58;1711627;80;20935;-64
2021/06/29 00:18:19;;;;;;;13.37;11.00;;;;;;;13.37;75.43;99566.61;1721761;80;21232;-64
2021/06/29 00:20:46;;;;;;;12.78;11.05;;;;;;;13.44;75.69;99568.38;1716758;80;20921;-64
2021/06/29 00:23:13;;;;;;;12.25;10.95;;;;;;;13.52;75.89;99567.44;1716778;80;20911;-64
2021/06/29 00:25:40;;;;;;;13.40;9.55;;;;;;;13.55;75.77;99573.81;1729144;80;20904;-64
2021/06/29 00:28:06;;;;;;;10.47;7.97;;;;;;;13.53;75.53;99579.64;1682692;82;20937;-64
2021/06/29 00:30:33;;;;;;;8.88;7.45;;;;;;;13.37;74.94;99573.64;1694376;82;21046;-64
2021/06/29 00:33:00;;;;;;;10.95;7.92;;;;;;;13.22;75.08;99581.95;1633119;85;20960;-64
2021/06/29 00:35:26;;;;;;;13.10;9.07;;;;;;;13.14;75.23;99573.23;1656297;83;20902;-64
2021/06/29 00:37:53;;;;;;;12.07;8.17;;;;;;;13.05;75.26;99573.79;1637536;85;21062;-64
2021/06/29 00:40:20;;;;;;;9.90;7.73;;;;;;;12.95;75.29;99572.64;1723313;80;21012;-63
2021/06/29 00:42:47;;;;;;;12.10;9.00;;;;;;;12.82;75.31;99572.98;1727810;80;21066;-65
2021/06/29 00:45:15;;;;;;;12.43;9.15;;;;;;;12.71;75.49;99566.58;1723823;80;20940;-65
2021/06/29 00:47:41;;;;;;;11.10;8.38;;;;;;;12.61;75.79;99569.38;1728049;80;20898;-64
2021/06/29 00:50:10;;;;;;;11.05;9.00;;;;;;;12.61;75.79;99569.38;1727610;80;20973;-65
2021/06/29 00:52:40;;;;;;;11.70;8.90;;;;;;;12.62;75.96;99568.44;1716692;80;20930;-65
2021/06/29 00:55:07;;;;;;;7.97;7.22;;;;;;;12.57;75.90;99567.86;1723263;80;21901;-65
2021/06/29 00:57:35;;;;;;;;;;;;;;;12.44;75.69;99566.91;1688718;82;20978;-65
2021/06/29 01:00:08;;;;;;;10.80;9.00;;;;;;;12.34;75.99;99568.34;1706672;82;20187;-65
2021/06/29 01:02:35;;;;;;;9.50;8.50;;;;;;;12.26;76.07;99561.76;1704589;82;21481;-65
2021/06/29 01:05:05;;;;;;;10.38;8.65;;;;;;;12.28;76.33;99572.99;1701377;82;20977;-65
2021/06/29 01:07:31;;;;;;;11.85;9.50;;;;;;;12.29;76.30;99569.47;1706145;82;21917;-65
2021/06/29 01:09:58;;;;;;;9.25;8.25;;;;;;;12.27;76.31;99572.63;1707967;82;20864;-65
2021/06/29 01:12:25;;;;;;;10.05;8.58;;;;;;;12.26;76.32;99568.30;1701367;82;20926;-65
2021/06/29 01:14:52;;;;;;;28.60;9.58;;;;;;;12.26;76.35;99572.23;1709663;82;20950;-65
2021/06/29 01:17:19;;;;;;;13.10;10.18;;;;;;;12.27;76.54;99570.01;1726484;80;20933;-65
2021/06/29 01:19:47;;;;;;;61.33;10.70;;;;;;;12.28;76.53;99567.76;1717500;80;21575;-65
2021/06/29 01:22:14;;;;;;;97.22;12.15;;;;;;;12.25;76.37;99564.01;1719130;80;20956;-65
2021/06/29 01:24:50;;;;;;;;;;;;;;;12.10;76.11;99558.34;1725029;80;20970;-64
2021/06/29 01:27:37;;;;;;;37.33;11.15;;;;;;;11.93;76.10;99558.41;1718596;80;20120;-65
2021/06/29 01:32:32;;;;;;;13.05;10.53;;;;;;;11.62;76.19;99566.16;1720459;81;21964;-65
2021/06/29 01:35:08;;;;;;;13.08;10.20;;;;;;;11.54;76.44;99554.39;1715836;81;20946;-65
2021/06/29 01:37:36;;;;;;;14.85;9.08;;;;;;;11.49;76.51;99548.59;1697532;81;20976;-65
2021/06/29 01:40:12;;;;;;;13.58;8.40;;;;;;;11.45;76.68;99551.81;1727606;80;20945;-65
2021/06/29 01:42:36;;;;;;;14.58;8.25;;;;;;;11.40;76.73;99549.47;1713791;80;21486;-65
2021/06/29 01:45:06;;;;;;;14.23;8.63;;;;;;;11.36;76.73;99551.84;1728265;80;21113;-65
2021/06/29 01:47:50;;;;;;;11.00;8.70;;;;;;;11.30;76.74;99554.80;1720496;80;21567;-65
2021/06/29 01:50:15;;;;;;;11.05;9.20;;;;;;;11.30;76.98;99554.80;1711912;80;21551;-65
2021/06/29 01:52:41;;;;;;;10.48;9.40;;;;;;;11.34;77.18;99551.11;1715807;80;20968;-65
2021/06/29 01:55:09;;;;;;;11.10;9.25;;;;;;;11.37;77.23;99545.72;1725858;80;20957;-65
2021/06/29 01:57:38;;;;;;;76.57;8.75;;;;;;;11.41;77.25;99549.84;1723680;80;21128;-65
2021/06/29 02:00:09;;;;;;;23.87;8.45;;;;;;;11.42;77.20;99548.90;1723696;80;21075;-65
2021/06/29 02:02:36;;;;;;;24.25;9.70;;;;;;;11.39;77.14;99546.45;1726484;80;20946;-65
2021/06/29 02:05:04;;;;;;;9.73;8.43;;;;;;;11.36;77.11;99547.09;1720312;80;20910;-65
2021/06/29 02:07:30;;;;;;;11.70;9.25;;;;;;;11.30;77.09;99539.11;1719361;80;20961;-65
2021/06/29 02:09:57;;;;;;;10.23;9.00;;;;;;;11.26;77.10;99542.83;1726762;80;21109;-65
2021/06/29 02:12:23;;;;;;;12.28;9.73;;;;;;;11.23;77.13;99537.77;1726987;80;21045;-65
2021/06/29 02:14:50;;;;;;;25.75;9.68;;;;;;;11.24;77.29;99535.52;1733689;80;20890;-65
2021/06/29 02:17:17;;;;;;;81.75;13.03;;;;;;;11.23;77.27;99532.53;1724443;80;21464;-65
2021/06/29 02:19:44;;;;;;;79.87;10.68;;;;;;;11.16;77.18;99529.38;1720352;80;20909;-65
2021/06/29 02:22:10;;;;;;;79.82;9.55;;;;;;;11.14;77.22;99530.39;1728273;80;21814;-65
2021/06/29 02:24:37;;;;;;;12.43;9.55;;;;;;;11.10;77.34;99531.02;1725518;80;21523;-65
2021/06/29 02:27:04;;;;;;;12.80;10.35;;;;;;;11.12;77.47;99530.95;1679142;82;20980;-65
2021/06/29 02:29:31;;;;;;;11.60;10.05;;;;;;;11.13;77.50;99528.24;1705200;82;21537;-64
2021/06/29 02:31:57;;;;;;;22.13;10.43;;;;;;;11.20;77.60;99530.05;1696443;82;20926;-64
2021/06/29 02:34:24;;;;;;;15.95;10.15;;;;;;;11.25;77.56;99528.05;1677801;83;22095;-65
2021/06/29 02:36:51;;;;;;;11.05;9.93;;;;;;;11.23;77.35;99532.53;1685900;83;20984;-65
2021/06/29 02:39:17;;;;;;;9.88;8.38;;;;;;;11.23;77.45;99532.53;1678187;83;20974;-64
2021/06/29 02:41:44;;;;;;;12.85;10.60;;;;;;;11.29;77.54;99537.44;1683380;83;20992;-65
2021/06/29 02:44:11;;;;;;;20.65;9.05;;;;;;;11.35;77.58;99537.09;1680593;83;20921;-65
2021/06/29 02:46:38;;;;;;;21.33;10.18;;;;;;;11.46;77.63;99535.69;1684452;82;21987;-65
2021/06/29 02:49:05;;;;;;;18.95;11.75;;;;;;;11.53;77.46;99529.19;1726321;80;20934;-65
2021/06/29 02:51:31;;;;;;;48.10;10.53;;;;;;;11.58;77.32;99525.39;1728399;80;20981;-65
2021/06/29 02:53:58;;;;;;;45.55;12.35;;;;;;;11.62;77.18;99526.06;1730093;80;21676;-65
2021/06/29 02:56:37;;;;;;;72.97;12.07;;;;;;;11.59;77.19;99527.54;1717215;80;21004;-65
2021/06/29 02:59:06;;;;;;;15.32;10.70;;;;;;;11.64;77.24;99521.60;1725217;80;21055;-64
2021/06/29 03:01:33;;;;;;;12.28;10.15;;;;;;;11.73;77.35;99526.32;1724039;80;20918;-65
2021/06/29 03:03:59;;;;;;;17.48;10.60;;;;;;;11.95;77.54;99529.09;1712998;80;20935;-65
2021/06/29 03:06:26;;;;;;;17.57;11.15;;;;;;;12.11;77.21;99523.38;1732194;80;22795;-65
2021/06/29 03:08:53;;;;;;;13.37;10.37;;;;;;;12.32;77.31;99522.60;1723445;80;21024;-65
2021/06/29 03:11:19;;;;;;;12.97;10.07;;;;;;;12.51;77.35;99530.25;1723839;80;21116;-65
2021/06/29 03:13:46;;;;;;;12.40;9.25;;;;;;;12.73;76.99;99525.91;1734434;80;20994;-65
2021/06/29 03:16:12;;;;;;;37.53;10.20;;;;;;;12.99;77.13;99523.02;1721567;80;20886;-65
2021/06/29 03:18:39;;;;;;;53.52;11.83;;;;;;;13.35;76.88;99520.44;1724278;80;21034;-65
2021/06/29 03:21:10;;;;;;;9.33;8.10;;;;;;;13.50;76.58;99518.64;1731670;80;20937;-66
2021/06/29 03:23:35;;;;;;;9.10;7.62;;;;;;;13.92;76.98;99509.85;1726953;80;21174;-65
2021/06/29 03:26:03;;;;;;;10.65;7.90;;;;;;;15.20;77.97;99507.42;1727787;80;20882;-65
2021/06/29 03:28:29;;;;;;;;;;;;;;;16.97;77.61;99500.63;1722352;80;20906;-66
2021/06/29 03:30:56;;;;;;;8.58;7.65;;;;;;;18.71;76.51;99496.73;1717979;80;20104;-66
2021/06/29 03:33:22;;;;;;;8.60;7.70;;;;;;;19.77;74.54;99494.20;1724256;80;20938;-67
2021/06/29 03:35:49;;;;;;;11.75;7.90;;;;;;;20.30;73.52;99476.09;1669201;82;21091;-66
2021/06/29 03:38:16;;;;;;;13.13;8.10;;;;;;;21.12;73.00;99487.97;1667119;84;21052;-66
2021/06/29 03:40:43;;;;;;;11.53;8.58;;;;;;;21.53;71.68;99485.83;1722324;80;26846;-66
2021/06/29 03:43:09;;;;;;;11.38;8.60;;;;;;;22.20;72.56;99484.22;1718132;80;20963;-66
2021/06/29 03:45:38;;;;;;;10.35;7.00;;;;;;;23.11;71.29;99477.24;1723446;80;20909;-66
2021/06/29 03:48:06;;;;;;;8.45;7.42;;;;;;;23.20;69.66;99468.29;1728094;80;21088;-65
2021/06/29 03:50:32;;;;;;;12.93;7.12;;;;;;;23.44;69.62;99463.53;1717743;80;20965;-66
2021/06/29 03:52:59;;;;;;;;;;;;;;;23.71;68.63;99466.48;1676203;83;21520;-66
2021/06/29 03:55:27;;;;;;;9.65;6.95;;;;;;;23.83;67.71;99465.16;1633970;85;20120;-66
2021/06/29 03:57:54;;;;;;;12.07;7.40;;;;;;;24.27;68.11;99462.20;1666504;84;20940;-66
2021/06/29 04:00:20;;;;;;;;;;;;;;;24.97;68.17;99466.15;1721636;80;21912;-66
2021/06/29 04:02:47;;;;;;;8.08;5.40;;;;;;;25.96;67.50;99459.35;1727028;80;20129;-66
2021/06/29 04:05:17;;;;;;;7.80;6.53;;;;;;;26.95;67.33;99452.64;1726609;80;20973;-66
2021/06/29 04:07:42;;;;;;;6.80;5.75;;;;;;;27.83;66.66;99455.72;1729840;80;21091;-67
2021/06/29 04:10:09;;;;;;;15.08;6.37;;;;;;;28.40;64.70;99457.16;1676963;83;20923;-66
2021/06/29 04:12:36;;;;;;;21.05;5.90;;;;;;;28.71;64.01;99464.37;1693579;82;21102;-66
2021/06/29 04:15:05;;;;;;;20.95;5.72;;;;;;;29.10;63.30;99464.81;1695777;82;20900;-66
2021/06/29 04:17:32;;;;;;;14.50;5.83;;;;;;;29.71;63.48;99456.81;1718307;80;20951;-66
2021/06/29 04:19:58;;;;;;;24.10;6.50;;;;;;;30.63;63.56;99455.77;1728525;80;20970;-66
2021/06/29 04:22:25;;;;;;;14.70;6.50;;;;;;;31.55;63.04;99456.59;1719094;80;20928;-64
2021/06/29 04:24:52;;;;;;;16.35;5.05;;;;;;;32.13;61.27;99456.46;1728582;80;21109;-64
2021/06/29 04:27:22;;;;;;;32.65;6.17;;;;;;;31.92;59.46;99455.46;1728391;80;21491;-64
2021/06/29 04:29:47;;;;;;;19.75;4.33;;;;;;;31.55;58.12;99456.59;1723691;80;21099;-64
2021/06/29 04:32:13;;;;;;;61.77;5.83;;;;;;;31.29;57.89;99461.03;1719778;80;20984;-64
2021/06/29 04:34:40;;;;;;;20.55;4.65;;;;;;;31.48;57.03;99457.98;1726303;80;21480;-64
2021/06/29 04:37:07;;;;;;;7.85;3.80;;;;;;;31.46;55.83;99443.05;1727758;80;21083;-65
2021/06/29 04:39:35;;;;;;;18.90;4.92;;;;;;;31.38;55.30;99442.77;1727822;80;20922;-64
2021/06/29 04:42:01;;;;;;;7.90;3.45;;;;;;;31.68;54.72;99447.08;1731293;80;20870;-64
2021/06/29 04:44:28;;;;;;;21.73;3.90;;;;;;;31.68;54.72;99447.08;1717504;80;20905;-63
2021/06/29 04:46:56;;;;;;;8.55;3.87;;;;;;;32.09;54.18;99440.38;1714913;80;20976;-64
2021/06/29 04:49:26;;;;;;;8.18;3.33;;;;;;;32.39;53.21;99437.03;1729841;80;21132;-64
2021/06/29 04:51:51;;;;;;;5.30;3.30;;;;;;;32.65;52.46;99439.50;1722123;80;20947;-64
2021/06/29 04:54:18;;;;;;;6.45;3.27;;;;;;;32.98;52.29;99442.38;1722707;80;21472;-64
2021/06/29 04:56:45;;;;;;;6.67;3.40;;;;;;;33.39;51.44;99436.83;1722707;80;21060;-64
2021/06/29 04:59:11;;;;;;;17.35;4.00;;;;;;;33.74;51.02;99446.98;1674880;83;21546;-64
2021/06/29 05:01:38;;;;;;;7.53;3.40;;;;;;;33.97;50.19;99449.75;1720684;80;21596;-64
2021/06/29 05:04:04;;;;;;;16.90;4.15;;;;;;;34.16;49.38;99455.95;1711974;80;20943;-64
2021/06/29 05:06:31;;;;;;;32.78;6.75;;;;;;;34.16;48.44;99459.20;1724100;80;20984;-64
2021/06/29 05:08:58;;;;;;;24.90;5.20;;;;;;;34.20;47.82;99459.02;1677294;83;21507;-64
2021/06/29 05:11:24;;;;;;;68.15;7.58;;;;;;;34.25;47.41;99459.14;1700339;82;20950;-65
2021/06/29 05:13:51;;;;;;;36.42;6.45;;;;;;;34.58;47.67;99463.21;1730065;80;22131;-64
2021/06/29 05:16:18;;;;;;;90.00;11.75;;;;;;;35.30;47.18;99462.38;1725493;80;20945;-64
2021/06/29 05:18:44;;;;;;;74.42;10.43;;;;;;;35.49;45.79;99452.67;1719930;80;20945;-64
2021/06/29 05:21:11;;;;;;;67.87;9.18;;;;;;;35.64;45.47;99449.75;1726600;80;21445;-65
2021/06/29 05:23:38;;;;;;;38.83;6.72;;;;;;;35.40;44.33;99455.80;1727395;80;20954;-64
2021/06/29 05:26:05;;;;;;;17.17;4.42;;;;;;;35.26;44.18;99453.05;1726943;80;21108;-64
2021/06/29 05:28:31;;;;;;;34.67;7.20;;;;;;;35.42;43.79;99453.64;1722397;80;20914;-65
2021/06/29 05:30:58;;;;;;;16.60;4.03;;;;;;;35.66;43.72;99453.60;1685500;82;21108;-64
2021/06/29 05:33:25;;;;;;;56.28;11.48;;;;;;;36.39;43.34;99454.59;1693533;82;20986;-64
2021/06/29 05:35:51;;;;;;;41.42;6.53;;;;;;;36.62;42.59;99459.05;1679662;83;21031;-64
2021/06/29 05:38:18;;;;;;;79.92;10.58;;;;;;;36.81;41.76;99450.61;1682740;83;21098;-65
2021/06/29 05:40:44;;;;;;;80.65;7.22;;;;;;;36.65;40.83;99447.66;1684857;82;20954;-64
2021/06/29 05:43:11;;;;;;;113.25;15.08;;;;;;;36.49;40.42;99453.91;1679752;83;20932;-64
2021/06/29 05:45:37;;;;;;;133.05;15.85;;;;;;;36.54;39.62;99449.95;1675643;83;22338;-64
2021/06/29 05:48:05;;;;;;;94.22;9.75;;;;;;;36.53;39.21;99453.75;1673018;83;20940;-65
2021/06/29 05:50:32;;;;;;;234.80;37.05;;;;;;;36.29;37.98;99449.80;1679946;83;21889;-65
2021/06/29 05:52:58;;;;;;;77.62;7.37;;;;;;;35.79;37.75;99453.27;1681429;82;20955;-64
2021/06/29 05:55:25;;;;;;;63.23;7.87;;;;;;;35.33;36.41;99446.96;1724155;80;21001;-64
2021/06/29 05:57:52;;;;;;;83.27;8.30;;;;;;;34.97;36.44;99448.91;1675017;83;20962;-63
2021/06/29 06:00:19;;;;;;;68.15;9.63;;;;;;;34.38;35.97;99448.09;1711578;82;20927;-64
2021/06/29 06:02:46;;;;;;;76.02;9.43;;;;;;;33.98;35.79;99441.94;1727992;80;21277;-64
2021/06/29 06:05:12;;;;;;;200.13;25.88;;;;;;;33.77;35.67;99432.98;1712176;80;20920;-64
2021/06/29 06:07:39;;;;;;;59.35;8.70;;;;;;;33.68;35.00;99437.09;1722858;80;20989;-64
2021/06/29 06:10:08;;;;;;;48.60;6.03;;;;;;;33.48;35.00;99440.86;1735151;80;20997;-64
2021/06/29 06:12:36;;;;;;;225.20;29.00;;;;;;;33.38;34.66;99437.86;1675567;83;20946;-64
2021/06/29 06:15:04;;;;;;;40.35;6.90;;;;;;;33.43;34.88;99436.66;1699183;81;21645;-64
2021/06/29 06:17:32;;;;;;;51.55;7.60;;;;;;;33.65;34.44;99442.43;1698931;82;21470;-64
2021/06/29 06:19:59;;;;;;;57.88;5.00;;;;;;;33.29;33.57;99437.35;1677542;82;20971;-64
2021/06/29 06:22:25;;;;;;;43.58;4.50;;;;;;;32.80;33.63;99438.30;1707910;82;20871;-64
2021/06/29 06:24:52;;;;;;;17.85;2.72;;;;;;;32.06;33.32;99430.02;1688664;82;20939;-64
2021/06/29 06:27:19;;;;;;;39.18;5.05;;;;;;;31.93;33.66;99428.75;1696729;82;21116;-63
2021/06/29 06:29:45;;;;;;;45.65;4.12;;;;;;;32.04;34.01;99434.80;1705136;82;20963;-64
2021/06/29 06:32:12;;;;;;;45.40;5.00;;;;;;;32.13;33.81;99436.73;1684553;82;20959;-63
2021/06/29 06:34:39;;;;;;;17.82;3.05;;;;;;;32.67;34.27;99440.11;1709088;82;20931;-64
2021/06/29 06:37:06;;;;;;;22.52;2.25;;;;;;;33.23;34.18;99437.45;1653490;84;20988;-64
2021/06/29 06:39:32;;;;;;;15.15;2.62;;;;;;;33.60;33.90;99441.75;1720784;80;21067;-63
2021/06/29 06:41:59;;;;;;;10.88;2.25;;;;;;;33.54;33.39;99445.38;1715776;80;21455;-63
2021/06/29 06:44:26;;;;;;;29.12;3.25;;;;;;;33.39;33.08;99446.30;1725645;80;20965;-64
2021/06/29 06:46:52;;;;;;;17.57;2.90;;;;;;;33.30;33.55;99443.58;1720579;80;20974;-64
2021/06/29 06:49:21;;;;;;;22.77;3.33;;;;;;;33.78;33.58;99441.42;1724853;80;20976;-65
2021/06/29 06:51:48;;;;;;;24.05;2.77;;;;;;;33.97;32.77;99447.05;1671590;82;22061;-66
2021/06/29 06:54:15;;;;;;;26.48;3.40;;;;;;;33.27;32.36;99439.45;1723415;80;20936;-65
2021/06/29 06:56:41;;;;;;;55.17;5.15;;;;;;;32.93;32.33;99448.98;1732624;80;20949;-66
2021/06/29 06:59:08;;;;;;;23.05;3.52;;;;;;;32.72;32.69;99445.67;1666286;83;21091;-67
2021/06/29 07:01:38;;;;;;;10.13;1.90;;;;;;;32.84;32.51;99450.34;1700565;82;21628;-66
2021/06/29 07:04:03;;;;;;;12.28;2.37;;;;;;;31.62;30.56;99447.91;1708328;82;21102;-66
2021/06/29 07:06:30;;;;;;;17.10;2.00;;;;;;;30.75;31.81;99448.70;1702947;82;20919;-66
2021/06/29 07:08:56;;;;;;;32.95;3.98;;;;;;;30.36;32.69;99449.08;1706539;82;21445;-65
2021/06/29 07:11:23;;;;;;;44.93;5.05;;;;;;;30.61;32.95;99445.72;1700853;82;20919;-66
2021/06/29 07:13:50;;;;;;;37.40;6.10;;;;;;;31.08;33.43;99442.43;1712026;82;20946;-65
2021/06/29 07:16:22;;;;;;;52.05;5.03;;;;;;;31.68;33.36;99441.67;1705808;82;21122;-66
2021/06/29 07:18:49;;;;;;;21.77;3.55;;;;;;;31.91;33.21;99438.94;1706901;82;20955;-66
2021/06/29 07:21:16;;;;;;;2.08;1.10;;;;;;;32.28;33.54;99438.04;1706985;82;22726;-65
2021/06/29 07:23:43;;;;;;;32.78;5.30;;;;;;;32.63;33.17;99442.12;1706193;82;20994;-65
2021/06/29 07:26:09;;;;;;;241.63;27.75;;;;;;;32.81;33.14;99445.39;1678582;83;21017;-65
2021/06/29 07:28:37;;;;;;;97.72;16.52;;;;;;;32.99;33.33;99442.67;1666705;82;21537;-66
2021/06/29 07:31:03;;;;;;;6.65;1.32;;;;;;;33.17;33.07;99449.47;1680152;82;20977;-66
2021/06/29 07:33:30;;;;;;;7.15;1.25;;;;;;;32.36;31.78;99437.47;1652019;84;20911;-65
2021/06/29 07:35:56;;;;;;;11.22;2.37;;;;;;;31.19;31.82;99440.42;1673918;83;21488;-65
2021/06/29 07:38:23;;;;;;;110.42;15.00;;;;;;;30.38;32.26;99441.59;1726662;80;20914;-66
2021/06/29 07:40:49;;;;;;;61.20;10.32;;;;;;;29.99;32.91;99441.86;1729038;80;21413;-65
2021/06/29 07:43:16;;;;;;;13.75;2.05;;;;;;;29.96;32.60;99446.30;1723375;80;20898;-65
2021/06/29 07:45:43;;;;;;;21.05;2.95;;;;;;;29.22;32.66;99443.90;1726680;80;20934;-65
2021/06/29 07:48:10;;;;;;;45.70;8.33;;;;;;;28.87;33.04;99438.20;1727985;80;20957;-65
2021/06/29 07:50:37;;;;;;;14.43;3.02;;;;;;;28.80;33.51;99449.44;1726395;80;20886;-64
2021/06/29 07:53:05;;;;;;;10.75;2.25;;;;;;;28.77;33.53;99447.45;1718701;80;21080;-65
2021/06/29 07:55:32;;;;;;;6.12;1.67;;;;;;;28.85;33.35;99453.69;1724245;80;21574;-64
2021/06/29 07:57:58;;;;;;;94.32;12.82;;;;;;;28.23;33.19;99456.12;1724620;80;21548;-65
2021/06/29 08:00:26;;;;;;;46.77;7.90;;;;;;;28.22;34.06;99447.73;1726717;80;20934;-65
2021/06/29 08:02:52;;;;;;;247.78;37.10;;;;;;;28.40;33.77;99454.47;1719839;80;20935;-64
2021/06/29 08:05:19;;;;;;;194.07;28.73;;;;;;;28.16;33.94;99453.88;1722255;80;21034;-65
2021/06/29 08:07:45;;;;;;;;;;;;;;;28.13;33.67;99450.23;1725160;80;20950;-65
2021/06/29 08:10:11;;;;;;;;;;;;;;;28.14;34.29;99450.55;1724299;80;20104;-65
2021/06/29 08:12:38;;;;;;;;;;;;;;;28.39;34.24;99451.48;1725536;80;20085;-65
2021/06/29 08:15:08;;;;;;;13.13;2.42;;;;;;;28.65;34.29;99443.67;1721468;80;20113;-64
2021/06/29 08:17:34;;;;;;;17.10;2.50;;;;;;;28.69;33.78;99439.55;1725352;80;22004;-65
2021/06/29 08:20:01;;;;;;;38.73;5.50;;;;;;;28.47;33.80;99443.31;1724673;80;21492;-65
2021/06/29 08:22:28;;;;;;;25.00;2.15;;;;;;;28.44;34.40;99443.70;1716046;80;21069;-65
2021/06/29 08:24:54;;;;;;;15.70;2.10;;;;;;;28.63;34.01;99441.68;1717967;80;21047;-65
2021/06/29 08:27:21;;;;;;;;;;;;;;;28.17;33.07;99440.77;1675333;83;21567;-66
2021/06/29 08:29:48;;;;;;;23.18;2.55;;;;;;;27.80;33.62;99439.18;1700090;82;21044;-65
2021/06/29 08:32:15;;;;;;;73.90;7.08;;;;;;;27.96;34.50;99436.77;1683815;82;21541;-65
2021/06/29 08:34:41;;;;;;;24.47;2.95;;;;;;;28.38;34.42;99428.35;1710663;82;20922;-66
2021/06/29 08:37:09;;;;;;;5.60;1.17;;;;;;;28.53;34.34;99432.61;1699899;82;20939;-65
2021/06/29 08:39:35;;;;;;;10.78;1.82;;;;;;;28.85;34.59;99436.22;1705159;82;20970;-65
2021/06/29 08:42:03;;;;;;;67.53;7.17;;;;;;;29.05;34.18;99427.80;1702642;82;22100;-65
2021/06/29 08:44:30;;;;;;;15.95;2.42;;;;;;;29.02;34.27;99428.17;1706252;82;20950;-65
2021/06/29 08:46:56;;;;;;;8.85;1.90;;;;;;;29.08;33.55;99424.71;1699597;82;21023;-66
2021/06/29 08:49:23;;;;;;;65.40;7.37;;;;;;;28.80;33.95;99429.29;1674113;83;20921;-65
2021/06/29 08:51:51;;;;;;;8.53;1.82;;;;;;;28.53;34.01;99411.64;1710539;82;20915;-65
2021/06/29 08:54:21;;;;;;;59.90;6.15;;;;;;;28.78;34.48;99422.23;1698516;82;21064;-66
2021/06/29 08:56:48;;;;;;;11.33;1.87;;;;;;;29.16;33.98;99420.52;1723840;80;20922;-66
2021/06/29 08:59:15;;;;;;;10.05;1.47;;;;;;;29.00;33.64;99416.78;1720122;80;21511;-66
2021/06/29 09:01:41;;;;;;;;;;;;;;;28.58;33.05;99428.00;1726709;80;20930;-66
2021/06/29 09:04:08;;;;;;;4.55;1.10;;;;;;;28.19;33.29;99422.62;1719504;80;20100;-65
2021/06/29 09:06:40;;;;;;;5.50;1.00;;;;;;;28.19;33.79;99417.25;1677561;83;22228;-65
2021/06/29 09:09:27;;;;;;;12.10;2.00;;;;;;;28.19;33.79;99417.25;1732300;80;21467;-65
2021/06/29 09:11:56;;;;;;;17.17;2.58;;;;;;;28.01;33.02;99422.27;1730666;80;20913;-65
2021/06/29 09:14:31;;;;;;;11.05;1.45;;;;;;;27.92;33.40;99415.35;1729789;80;21001;-65
2021/06/29 09:17:20;;;;;;;342.70;55.48;;;;;;;27.96;33.40;99420.16;1719569;80;20998;-65
2021/06/29 09:19:47;;;;;;;6.85;1.70;;;;;;;28.29;33.82;99414.25;1717507;80;21967;-65
2021/06/29 09:22:33;;;;;;;41.45;5.65;;;;;;;28.48;33.26;99412.22;1719782;80;20917;-65
2021/06/29 09:25:04;;;;;;;81.25;10.60;;;;;;;28.71;33.67;99418.70;1730010;80;21556;-66
2021/06/29 09:27:44;;;;;;;120.75;17.25;;;;;;;28.99;33.04;99415.95;1698951;80;20985;-66
2021/06/29 09:30:42;;;;;;;111.25;15.83;;;;;;;28.86;33.19;99420.43;1710291;80;20982;-67
2021/06/29 09:33:19;;;;;;;5.35;1.98;;;;;;;29.03;33.47;99412.38;1729886;80;21116;-66
2021/06/29 09:35:50;;;;;;;3.27;1.30;;;;;;;28.96;32.66;99418.19;1727585;80;20969;-67
2021/06/29 09:38:22;;;;;;;5.12;1.40;;;;;;;28.53;31.27;99421.05;1728879;80;20985;-66
2021/06/29 09:41:01;;;;;;;8.63;2.12;;;;;;;28.09;32.32;99416.73;1677198;82;20941;-66
2021/06/29 09:43:32;;;;;;;89.20;13.48;;;;;;;28.04;32.92;99411.14;1680997;83;21110;-64
2021/06/29 09:46:02;;;;;;;24.75;3.05;;;;;;;28.25;33.05;99408.41;1721314;80;21246;-66
2021/06/29 09:48:45;;;;;;;3.00;2.17;;;;;;;28.34;33.05;99409.95;1723678;80;20922;-65
2021/06/29 09:51:24;;;;;;;29.90;4.17;;;;;;;28.29;32.81;99407.02;1724971;80;20914;-66
2021/06/29 09:53:53;;;;;;;8.28;1.90;;;;;;;28.37;33.51;99397.96;1731508;80;21044;-65
2021/06/29 09:56:23;;;;;;;4.22;1.50;;;;;;;28.41;32.29;99398.42;1725483;80;20973;-66
2021/06/29 09:58:56;;;;;;;2.95;1.90;;;;;;;28.06;32.83;99398.34;1712943;80;21073;-66
2021/06/29 10:01:29;;;;;;;4.72;2.17;;;;;;;28.08;32.90;99398.98;1677981;83;20930;-66
2021/06/29 10:03:54;;;;;;;49.85;3.62;;;;;;;27.99;32.99;99390.77;1703252;82;20915;-64
2021/06/29 10:06:28;;;;;;;;;;;;;;;28.01;33.17;99390.06;1648814;84;20979;-63
2021/06/29 10:09:07;;;;;;;15.58;3.05;;;;;;;28.21;32.84;99397.77;1664885;84;20486;-64
2021/06/29 10:11:37;;;;;;;15.85;2.87;;;;;;;28.22;33.44;99387.33;1721552;80;21067;-64
2021/06/29 10:14:11;;;;;;;10.72;2.22;;;;;;;28.50;33.40;99391.90;1696578;80;20988;-64
2021/06/29 10:16:45;;;;;;;5.00;2.00;;;;;;;28.63;33.39;99380.42;1723870;80;21497;-64
2021/06/29 10:19:18;;;;;;;9.53;3.10;;;;;;;28.62;33.21;99375.54;1713320;80;21099;-64
2021/06/29 10:21:49;;;;;;;2.65;2.05;;;;;;;28.22;32.43;99381.96;1728793;80;21685;-65
2021/06/29 10:24:23;;;;;;;6.72;1.95;;;;;;;28.08;32.91;99366.78;1725231;80;21915;-67
2021/06/29 10:26:56;;;;;;;6.47;1.98;;;;;;;28.18;33.45;99378.02;1722666;80;20914;-66
2021/06/29 10:29:23;;;;;;;6.55;1.80;;;;;;;28.43;32.83;99378.93;1724008;80;20910;-65
2021/06/29 10:31:55;;;;;;;15.00;3.25;;;;;;;28.15;32.79;99370.36;1722675;80;21051;-65
2021/06/29 10:34:24;;;;;;;3.55;2.10;;;;;;;28.28;33.02;99373.64;1716678;80;20914;-67
2021/06/29 10:36:55;;;;;;;4.33;2.40;;;;;;;28.26;33.04;99371.66;1722270;80;21963;-64
2021/06/29 10:39:26;;;;;;;5.20;2.10;;;;;;;28.15;33.00;99364.14;1730893;80;21873;-66
2021/06/29 10:42:03;;;;;;;5.72;2.25;;;;;;;27.77;32.96;99375.16;1720929;80;20898;-66
2021/06/29 10:44:41;;;;;;;10.88;2.33;;;;;;;27.48;33.45;99373.44;1718122;80;20939;-66
2021/06/29 10:47:25;;;;;;;7.78;2.62;;;;;;;27.57;33.68;99367.75;1722266;80;20915;-66
2021/06/29 10:49:57;;;;;;;4.78;2.27;;;;;;;27.75;33.85;99368.63;1724602;80;21077;-65
2021/06/29 10:52:33;;;;;;;7.78;2.25;;;;;;;27.88;33.50;99366.11;1717379;80;20902;-64
2021/06/29 10:55:03;;;;;;;;;;;;;;;27.98;34.06;99360.91;1731790;80;21492;-64
2021/06/29 10:57:48;;;;;;;2.95;1.98;;;;;;;27.79;33.68;99373.97;1714827;80;20126;-64
2021/06/29 11:00:23;;;;;;;5.60;2.70;;;;;;;27.45;33.69;99372.79;1726076;80;21096;-64
2021/06/29 11:03:08;;;;;;;5.78;2.17;;;;;;;27.36;34.13;99371.25;1729503;80;22135;-64
2021/06/29 11:05:43;;;;;;;11.45;2.62;;;;;;;27.71;33.53;99369.23;1685752;83;22067;-64
2021/06/29 11:08:24;;;;;;;9.15;2.52;;;;;;;27.88;34.28;99359.39;1700441;82;21446;-64
2021/06/29 11:10:49;;;;;;;15.58;3.42;;;;;;;28.13;34.05;99352.80;1695815;82;21583;-64
2021/06/29 11:13:40;;;;;;;12.18;2.42;;;;;;;28.08;34.25;99357.39;1687822;82;21549;-64
2021/06/29 11:16:07;;;;;;;9.05;2.33;;;;;;;28.08;33.53;99370.81;1689435;82;21301;-65
2021/06/29 11:18:40;;;;;;;;;;;;;;;27.91;33.55;99362.73;1699994;82;21489;-64
2021/06/29 11:21:12;;;;;;;7.28;2.40;;;;;;;27.97;34.11;99353.89;1702632;82;20090;-65
2021/06/29 11:23:39;;;;;;;178.55;25.52;;;;;;;28.03;34.18;99347.75;1693911;82;21054;-64
2021/06/29 11:26:19;;;;;;;100.15;15.30;;;;;;;28.33;34.33;99343.84;1707087;82;20919;-64
2021/06/29 11:28:51;;;;;;;3.55;2.17;;;;;;;28.65;34.52;99338.91;1709274;82;21470;-64
2021/06/29 11:31:26;;;;;;;1.95;1.60;;;;;;;28.78;33.85;99341.64;1708148;82;20969;-65
2021/06/29 11:33:59;;;;;;;2.20;2.00;;;;;;;28.63;33.93;99338.27;1705467;82;20902;-64
2021/06/29 11:36:36;;;;;;;4.70;2.02;;;;;;;28.78;33.99;99333.58;1702217;82;20931;-64
2021/06/29 11:39:23;;;;;;;74.50;12.15;;;;;;;28.95;33.48;99343.98;1698975;82;20947;-65